Time;durP1;ratioP1;P1;durP2;ratioP2;P2;SDS_P1;SDS_P2;PMS_P1;PMS_P2;Temp;Humidity;BMP_temperature;BMP_pressure;BME280_temperature;BME280_humidity;BME280_pressure;Samples;Min_cycle;Max_cycle;Signal;HPM_P1;HPM_P2
2023/08/15 00:01:39;;;;;;;7.20;4.30;;;18.90;99.90;;;;;;5072467;28;20166;-71
2023/08/15 00:04:05;;;;;;;5.63;5.13;;;18.80;99.90;;;;;;5073616;28;20925;-71
2023/08/15 00:06:30;;;;;;;5.53;5.03;;;18.80;99.90;;;;;;5072414;28;20592;-65
2023/08/15 00:08:59;;;;;;;6.00;5.00;;;18.80;99.90;;;;;;5073210;28;20663;-71
2023/08/15 00:11:25;;;;;;;7.80;4.77;;;18.70;99.90;;;;;;5072615;28;20182;-70
2023/08/15 00:13:55;;;;;;;5.80;5.30;;;18.70;99.90;;;;;;5071973;28;20821;-68
2023/08/15 00:16:21;;;;;;;9.87;5.17;;;18.70;99.90;;;;;;5070648;28;20174;-70
2023/08/15 00:18:47;;;;;;;7.20;5.27;;;18.70;99.90;;;;;;5073166;28;20944;-72
2023/08/15 00:21:13;;;;;;;5.67;5.10;;;18.70;99.90;;;;;;5073215;28;20409;-71
2023/08/15 00:23:38;;;;;;;5.27;4.87;;;18.60;99.90;;;;;;5071791;28;20175;-66
2023/08/15 00:26:04;;;;;;;4.97;4.57;;;18.60;99.90;;;;;;5072465;28;20796;-65
2023/08/15 00:28:30;;;;;;;4.80;4.50;;;18.60;99.90;;;;;;5073016;28;20194;-71
2023/08/15 00:30:55;;;;;;;5.07;4.60;;;18.60;99.90;;;;;;5070594;28;20178;-68
2023/08/15 00:33:21;;;;;;;5.43;4.67;;;18.60;99.90;;;;;;5072576;28;20181;-70
2023/08/15 00:35:47;;;;;;;9.70;5.30;;;18.60;99.90;;;;;;5071113;28;20206;-71
2023/08/15 00:38:13;;;;;;;6.83;5.67;;;18.60;99.90;;;;;;5073005;28;20201;-67
2023/08/15 00:40:39;;;;;;;9.80;5.87;;;18.60;99.90;;;;;;5073087;28;20181;-71
2023/08/15 00:43:05;;;;;;;5.37;4.87;;;18.60;99.90;;;;;;5072957;28;20181;-68
2023/08/15 00:45:32;;;;;;;5.57;5.17;;;18.60;99.90;;;;;;5053927;28;20436;-66
2023/08/15 00:47:58;;;;;;;6.07;5.47;;;18.70;99.90;;;;;;5058418;28;20453;-66
2023/08/15 00:50:24;;;;;;;8.03;5.60;;;18.70;99.90;;;;;;5052302;28;20400;-65
2023/08/15 00:52:50;;;;;;;5.73;5.30;;;18.80;99.90;;;;;;5052909;28;20173;-71
2023/08/15 00:55:18;;;;;;;5.37;4.87;;;18.80;99.90;;;;;;5051893;28;21069;-65
2023/08/15 00:57:44;;;;;;;5.37;4.90;;;18.90;99.90;;;;;;5052864;28;20432;-66
2023/08/15 01:00:11;;;;;;;5.40;4.97;;;18.90;99.90;;;;;;5072847;28;20857;-71
2023/08/15 01:02:38;;;;;;;5.80;5.13;;;18.90;99.90;;;;;;5067757;28;20432;-65
2023/08/15 01:05:05;;;;;;;4.57;4.20;;;19.00;99.90;;;;;;5052366;28;20424;-67
2023/08/15 01:07:31;;;;;;;9.03;5.33;;;19.00;99.90;;;;;;5052063;28;20420;-68
2023/08/15 01:09:56;;;;;;;5.93;5.10;;;19.10;99.90;;;;;;5051426;28;20979;-67
2023/08/15 01:12:29;;;;;;;5.50;5.00;;;19.10;99.90;;;;;;5052708;28;20409;-71
2023/08/15 01:15:11;;;;;;;6.53;5.30;;;19.10;99.90;;;;;;5062439;28;20257;-68
2023/08/15 01:17:47;;;;;;;7.37;5.27;;;19.10;99.90;;;;;;5070943;28;20486;-66
2023/08/15 01:20:20;;;;;;;5.50;5.00;;;19.10;99.90;;;;;;5061532;28;20861;-72
2023/08/15 01:22:47;;;;;;;6.93;5.10;;;19.10;99.90;;;;;;5052774;28;20393;-66
2023/08/15 01:25:13;;;;;;;5.50;5.10;;;19.10;99.90;;;;;;5051625;28;20890;-71
2023/08/15 01:27:39;;;;;;;6.47;5.07;;;19.10;99.90;;;;;;5051632;28;20425;-70
2023/08/15 01:30:05;;;;;;;8.90;4.90;;;19.00;99.90;;;;;;5052007;28;20254;-67
2023/08/15 01:32:54;;;;;;;8.10;5.57;;;19.00;99.90;;;;;;5053660;28;20171;-65
2023/08/15 01:35:28;;;;;;;5.03;4.63;;;19.00;99.90;;;;;;5051578;28;20452;-67
2023/08/15 01:38:14;;;;;;;9.63;4.73;;;18.90;99.90;;;;;;5056878;28;20833;-71
2023/08/15 01:40:41;;;;;;;5.20;4.70;;;18.90;99.90;;;;;;5072585;28;20413;-68
2023/08/15 01:43:13;;;;;;;13.10;5.67;;;18.90;99.90;;;;;;5071211;28;20500;-65
2023/08/15 01:45:39;;;;;;;5.83;5.00;;;18.90;99.90;;;;;;5069375;28;20872;-65
2023/08/15 01:48:05;;;;;;;5.53;4.90;;;18.90;99.90;;;;;;5071301;28;20424;-71
2023/08/15 01:50:31;;;;;;;5.50;5.10;;;18.80;99.90;;;;;;5071362;28;20177;-66
2023/08/15 01:52:56;;;;;;;11.77;5.03;;;18.80;99.90;;;;;;5072268;28;20401;-65
2023/08/15 01:55:22;;;;;;;5.17;4.70;;;18.80;99.90;;;;;;5067257;28;20272;-70
2023/08/15 01:57:48;;;;;;;6.00;5.40;;;18.90;99.90;;;;;;5055369;28;20663;-65
2023/08/15 02:00:13;;;;;;;5.60;5.10;;;18.80;99.90;;;;;;5056931;28;20167;-67
2023/08/15 02:02:39;;;;;;;7.20;5.50;;;18.80;99.90;;;;;;5073945;28;20687;-70
2023/08/15 02:05:06;;;;;;;6.43;5.70;;;18.80;99.90;;;;;;5074881;28;20162;-66
2023/08/15 02:07:31;;;;;;;5.00;4.60;;;18.80;99.90;;;;;;5075771;28;20232;-70
2023/08/15 02:09:57;;;;;;;14.13;4.90;;;18.80;99.90;;;;;;5074747;28;20440;-70
2023/08/15 02:12:23;;;;;;;9.93;5.07;;;18.80;99.90;;;;;;5073771;28;20174;-67
2023/08/15 02:14:48;;;;;;;5.13;4.83;;;18.70;99.90;;;;;;5075697;28;20500;-66
2023/08/15 02:17:14;;;;;;;4.80;4.50;;;18.70;99.90;;;;;;5073210;28;20666;-70
2023/08/15 02:19:41;;;;;;;6.20;5.13;;;18.70;99.90;;;;;;5074819;28;20654;-70
2023/08/15 02:22:07;;;;;;;6.50;5.60;;;18.70;99.90;;;;;;5074238;28;20537;-66
2023/08/15 02:24:32;;;;;;;7.20;5.07;;;18.60;99.90;;;;;;5075409;28;20479;-70
2023/08/15 02:26:58;;;;;;;6.50;5.30;;;18.60;99.90;;;;;;5063650;28;20728;-70
2023/08/15 02:29:24;;;;;;;14.33;5.50;;;18.60;99.90;;;;;;5065529;28;20170;-67
2023/08/15 02:31:50;;;;;;;5.33;4.83;;;18.60;99.90;;;;;;5064209;28;20167;-70
2023/08/15 02:34:18;;;;;;;5.67;4.80;;;18.60;99.90;;;;;;5069854;28;20249;-71
2023/08/15 02:36:47;;;;;;;5.80;5.07;;;18.60;99.90;;;;;;5073995;28;20167;-70
2023/08/15 02:39:16;;;;;;;5.90;4.83;;;18.60;99.90;;;;;;5074803;28;20453;-70
2023/08/15 02:41:43;;;;;;;5.93;5.10;;;18.60;99.90;;;;;;5075149;28;20400;-70
2023/08/15 02:44:09;;;;;;;5.30;4.90;;;18.50;99.90;;;;;;5075043;28;20481;-70
2023/08/15 02:46:34;;;;;;;5.53;4.70;;;18.50;99.90;;;;;;5069660;28;20586;-68
2023/08/15 02:49:00;;;;;;;5.30;4.90;;;18.50;99.90;;;;;;5067714;28;20605;-65
2023/08/15 02:51:26;;;;;;;6.27;5.67;;;18.50;99.90;;;;;;5065429;28;20186;-65
2023/08/15 02:53:52;;;;;;;6.10;5.60;;;18.50;99.90;;;;;;5053510;28;20425;-69
2023/08/15 02:56:17;;;;;;;7.23;5.40;;;18.50;99.90;;;;;;5053315;28;20178;-70
2023/08/15 02:58:43;;;;;;;5.73;4.90;;;18.50;99.90;;;;;;5054548;28;20191;-66
2023/08/15 03:01:09;;;;;;;8.93;5.63;;;18.50;99.90;;;;;;5063287;28;20201;-70
2023/08/15 03:03:35;;;;;;;6.00;5.50;;;18.50;99.90;;;;;;5073932;28;20405;-67
2023/08/15 03:06:02;;;;;;;6.20;5.70;;;18.40;99.90;;;;;;5073758;28;20647;-66
2023/08/15 03:08:29;;;;;;;5.57;5.00;;;18.40;99.90;;;;;;5073336;28;20190;-71
2023/08/15 03:10:54;;;;;;;5.43;4.93;;;18.40;99.90;;;;;;5074509;28;20769;-66
2023/08/15 03:13:20;;;;;;;5.43;4.70;;;18.50;99.90;;;;;;5074236;28;20404;-71
2023/08/15 03:15:53;;;;;;;5.93;5.20;;;18.50;99.90;;;;;;5070257;28;20178;-71
2023/08/15 03:18:19;;;;;;;7.10;5.47;;;18.50;99.90;;;;;;5073263;28;20657;-68
2023/08/15 03:20:55;;;;;;;5.80;5.30;;;18.40;99.90;;;;;;5073540;28;20452;-68
2023/08/15 03:23:20;;;;;;;5.20;4.80;;;18.50;99.90;;;;;;5074479;28;20641;-65
2023/08/15 03:25:54;;;;;;;6.87;5.30;;;18.50;99.90;;;;;;5073363;28;20409;-66
2023/08/15 03:28:20;;;;;;;6.00;5.40;;;18.50;99.90;;;;;;5071561;28;20228;-65
2023/08/15 03:30:45;;;;;;;11.03;5.20;;;18.60;99.90;;;;;;5072346;28;20440;-71
2023/08/15 03:33:11;;;;;;;5.70;5.10;;;18.60;99.90;;;;;;5072233;28;20266;-67
2023/08/15 03:35:43;;;;;;;6.50;5.40;;;18.60;99.90;;;;;;5073234;28;20245;-70
2023/08/15 03:38:08;;;;;;;8.50;5.00;;;18.60;99.90;;;;;;5073099;28;20189;-69
2023/08/15 03:40:34;;;;;;;6.00;5.50;;;18.60;99.90;;;;;;5073764;28;20889;-65
2023/08/15 03:43:00;;;;;;;6.07;5.50;;;18.70;99.90;;;;;;5072045;28;20178;-67
2023/08/15 03:45:25;;;;;;;8.80;6.60;;;18.70;99.90;;;;;;5072060;28;20170;-65
2023/08/15 03:47:51;;;;;;;7.97;5.53;;;18.70;99.90;;;;;;5073740;28;20539;-65
2023/08/15 03:50:17;;;;;;;7.07;5.53;;;18.70;99.90;;;;;;5073733;28;20174;-70
2023/08/15 03:52:42;;;;;;;9.50;6.87;;;18.70;99.90;;;;;;5073086;28;20235;-66
2023/08/15 03:55:08;;;;;;;6.80;6.10;;;18.70;99.90;;;;;;5069590;28;20291;-70
2023/08/15 03:57:34;;;;;;;6.33;5.73;;;18.60;99.90;;;;;;5072837;28;20200;-70
2023/08/15 03:59:59;;;;;;;8.90;6.10;;;18.60;99.90;;;;;;5072670;28;20211;-66
2023/08/15 04:02:25;;;;;;;6.43;5.83;;;18.60;99.90;;;;;;5073532;28;20657;-66
2023/08/15 04:04:51;;;;;;;10.70;6.20;;;18.60;99.90;;;;;;5073358;28;20531;-66
2023/08/15 04:07:16;;;;;;;6.77;6.27;;;18.60;99.90;;;;;;5072662;28;20791;-70
2023/08/15 04:09:42;;;;;;;8.20;6.20;;;18.60;99.90;;;;;;5071169;28;20174;-70
2023/08/15 04:12:08;;;;;;;6.87;6.20;;;18.60;99.90;;;;;;5072168;28;20243;-65
2023/08/15 04:14:34;;;;;;;9.73;6.40;;;18.60;99.90;;;;;;5066517;28;20174;-71
2023/08/15 04:16:59;;;;;;;9.67;7.07;;;18.70;99.90;;;;;;5066864;28;20198;-66
2023/08/15 04:19:25;;;;;;;10.57;7.70;;;18.70;99.90;;;;;;5073050;28;20229;-70
2023/08/15 04:21:50;;;;;;;8.63;7.23;;;18.70;99.90;;;;;;5073299;28;20166;-70
2023/08/15 04:24:18;;;;;;;9.30;7.70;;;18.80;99.90;;;;;;5073165;28;20253;-69
2023/08/15 04:26:43;;;;;;;9.97;8.00;;;18.80;99.90;;;;;;5072256;28;20177;-66
2023/08/15 04:29:09;;;;;;;8.00;7.30;;;18.80;99.90;;;;;;5056743;28;20985;-70
2023/08/15 04:31:35;;;;;;;8.90;8.03;;;18.90;99.90;;;;;;5052986;28;20536;-71
2023/08/15 04:34:01;;;;;;;11.00;8.27;;;18.90;1.00;;;;;;5053171;28;20194;-70
2023/08/15 04:36:26;;;;;;;9.77;7.73;;;19.00;1.00;;;;;;5052194;28;20178;-67
2023/08/15 04:38:52;;;;;;;9.33;7.70;;;19.00;1.00;;;;;;5052824;28;20226;-69
2023/08/15 04:41:18;;;;;;;10.03;7.53;;;19.10;1.00;;;;;;5051755;28;20274;-70
2023/08/15 04:43:43;;;;;;;10.83;7.50;;;19.10;1.00;;;;;;5055148;28;20182;-70
2023/08/15 04:46:09;;;;;;;9.77;7.23;;;19.10;1.00;;;;;;5067848;28;20539;-70
2023/08/15 04:48:34;;;;;;;9.13;7.20;;;19.10;99.90;;;;;;5071083;28;20303;-65
2023/08/15 04:51:00;;;;;;;10.90;8.87;;;19.20;99.90;;;;;;5072843;28;20166;-66
2023/08/15 04:53:26;;;;;;;14.63;7.60;;;19.20;99.90;;;;;;5072845;28;20186;-66
2023/08/15 04:55:51;;;;;;;11.30;7.07;;;19.20;99.90;;;;;;5068514;28;20524;-71
2023/08/15 04:58:17;;;;;;;7.53;6.83;;;19.20;99.90;;;;;;5063414;28;20208;-69
2023/08/15 05:00:43;;;;;;;8.80;7.90;;;19.20;99.90;;;;;;5067800;28;20175;-68
2023/08/15 05:03:08;;;;;;;10.73;7.03;;;19.20;99.90;;;;;;5053054;28;20185;-70
2023/08/15 05:05:34;;;;;;;9.93;6.73;;;19.20;99.90;;;;;;5065816;28;20198;-71
2023/08/15 05:08:00;;;;;;;9.60;6.33;;;19.20;99.90;;;;;;5070910;28;20190;-70
2023/08/15 05:10:25;;;;;;;6.73;6.13;;;19.20;99.90;;;;;;5072708;28;20196;-66
2023/08/15 05:12:51;;;;;;;6.90;6.20;;;19.20;99.90;;;;;;5056221;28;20171;-71
2023/08/15 05:15:17;;;;;;;8.90;6.47;;;19.20;99.90;;;;;;5050711;28;20704;-71
2023/08/15 05:17:48;;;;;;;10.13;6.17;;;19.20;99.90;;;;;;5052643;28;20186;-67
2023/08/15 05:20:14;;;;;;;10.10;6.70;;;19.20;99.90;;;;;;5069946;28;20494;-69
2023/08/15 05:22:40;;;;;;;9.00;6.63;;;19.20;99.90;;;;;;5072634;28;20853;-71
2023/08/15 05:25:06;;;;;;;8.50;6.60;;;19.10;99.90;;;;;;5071304;28;20432;-68
2023/08/15 05:27:32;;;;;;;6.50;6.00;;;19.10;99.90;;;;;;5069286;28;20277;-68
2023/08/15 05:29:58;;;;;;;11.50;8.40;;;19.20;99.90;;;;;;5072614;28;20491;-66
2023/08/15 05:32:24;;;;;;;8.77;7.87;;;19.20;99.90;;;;;;5075432;28;20595;-66
2023/08/15 05:34:49;;;;;;;8.73;7.80;;;19.20;99.90;;;;;;5074107;28;20172;-72
2023/08/15 05:37:15;;;;;;;10.43;8.73;;;19.30;99.90;;;;;;5073692;28;20517;-66
2023/08/15 05:39:41;;;;;;;12.27;8.57;;;19.40;99.90;;;;;;5076146;28;20546;-65
2023/08/15 05:42:06;;;;;;;8.23;7.40;;;19.50;99.90;;;;;;5074645;28;20178;-68
2023/08/15 05:44:32;;;;;;;14.67;8.07;;;19.50;99.90;;;;;;5076174;28;20167;-64
2023/08/15 05:46:58;;;;;;;12.50;8.07;;;19.60;99.90;;;;;;5074513;28;20194;-64
2023/08/15 05:49:24;;;;;;;8.97;7.23;;;19.70;99.90;;;;;;5076085;28;20180;-68
2023/08/15 05:51:49;;;;;;;10.10;8.10;;;19.80;99.90;;;;;;5073975;28;20227;-68
2023/08/15 05:54:15;;;;;;;13.70;8.00;;;19.90;99.90;;;;;;5075095;28;20186;-67
2023/08/15 05:56:40;;;;;;;8.73;7.93;;;20.00;99.90;;;;;;5068807;28;20209;-68
2023/08/15 05:59:06;;;;;;;8.00;7.30;;;20.10;99.90;;;;;;5057279;28;20248;-68
2023/08/15 06:01:32;;;;;;;8.63;7.83;;;20.20;99.90;;;;;;5056119;28;20539;-64
2023/08/15 06:03:57;;;;;;;8.90;7.90;;;20.20;99.90;;;;;;5054819;28;20166;-67
2023/08/15 06:06:23;;;;;;;12.17;7.93;;;20.30;99.90;;;;;;5054814;28;20224;-66
2023/08/15 06:08:49;;;;;;;8.63;7.53;;;20.30;99.90;;;;;;5055783;28;20191;-69
2023/08/15 06:11:15;;;;;;;9.60;7.63;;;20.40;99.90;;;;;;5060272;28;20178;-64
2023/08/15 06:13:40;;;;;;;11.97;8.10;;;20.50;99.90;;;;;;5075600;28;20575;-64
2023/08/15 06:16:06;;;;;;;10.27;7.10;;;20.50;99.90;;;;;;5074912;28;20500;-63
2023/08/15 06:18:32;;;;;;;11.77;7.60;;;20.60;99.90;;;;;;5075361;28;20206;-65
2023/08/15 06:20:58;;;;;;;9.60;7.70;;;20.60;99.90;;;;;;5072130;28;20162;-68
2023/08/15 06:23:24;;;;;;;10.43;6.80;;;20.70;99.90;;;;;;5056614;28;20428;-68
2023/08/15 06:25:49;;;;;;;17.00;8.10;;;20.70;99.90;;;;;;5053873;28;20174;-64
2023/08/15 06:28:17;;;;;;;7.87;7.13;;;20.70;99.90;;;;;;5055868;28;20206;-68
2023/08/15 06:30:42;;;;;;;9.77;7.90;;;20.70;99.90;;;;;;5055506;28;20155;-65
2023/08/15 06:33:08;;;;;;;13.80;8.43;;;20.70;99.90;;;;;;5055275;28;20400;-68
2023/08/15 06:35:34;;;;;;;9.90;6.97;;;20.70;99.90;;;;;;5064220;28;20224;-65
2023/08/15 06:37:59;;;;;;;14.77;10.20;;;20.80;99.90;;;;;;5073797;28;20205;-67
2023/08/15 06:40:25;;;;;;;10.07;7.83;;;20.80;99.90;;;;;;5074603;28;20163;-63
2023/08/15 06:42:51;;;;;;;8.97;8.07;;;20.80;99.90;;;;;;5073168;28;20174;-65
2023/08/15 06:45:18;;;;;;;13.00;7.37;;;20.90;99.90;;;;;;5073318;28;20185;-64
2023/08/15 06:47:44;;;;;;;8.10;7.30;;;21.00;99.90;;;;;;5074963;28;20543;-72
2023/08/15 06:50:10;;;;;;;9.20;7.03;;;21.00;99.90;;;;;;5060416;28;20422;-71
2023/08/15 06:52:36;;;;;;;11.73;8.17;;;21.00;99.90;;;;;;5054496;28;20171;-72
2023/08/15 06:55:06;;;;;;;13.90;7.03;;;21.20;99.90;;;;;;5053747;28;20598;-73
2023/08/15 06:57:32;;;;;;;13.37;7.50;;;21.30;99.90;;;;;;5055017;28;20543;-67
2023/08/15 06:59:58;;;;;;;12.13;7.57;;;21.50;99.90;;;;;;5059087;28;20456;-68
2023/08/15 07:02:25;;;;;;;15.30;7.73;;;21.70;99.90;;;;;;5053726;28;20410;-66
2023/08/15 07:04:51;;;;;;;13.90;6.90;;;21.80;99.90;;;;;;5054502;28;20167;-72
2023/08/15 07:07:17;;;;;;;8.37;6.63;;;22.00;99.90;;;;;;5052827;28;20956;-66
2023/08/15 07:09:44;;;;;;;13.03;8.00;;;22.30;99.90;;;;;;5060710;28;20421;-70
2023/08/15 07:12:09;;;;;;;6.93;6.27;;;22.40;99.90;;;;;;5068725;28;20429;-70
2023/08/15 07:14:35;;;;;;;13.60;6.30;;;22.60;99.90;;;;;;5054136;28;20539;-72
2023/08/15 07:17:01;;;;;;;8.93;6.60;;;22.70;99.90;;;;;;5051781;28;20195;-72
2023/08/15 07:19:27;;;;;;;8.30;6.20;;;22.70;99.90;;;;;;5053181;28;20203;-73
2023/08/15 07:21:53;;;;;;;7.17;6.20;;;22.80;99.90;;;;;;5054355;28;20166;-72
2023/08/15 07:24:19;;;;;;;9.20;5.97;;;22.80;99.90;;;;;;5053981;28;20189;-67
2023/08/15 07:26:45;;;;;;;9.30;6.27;;;22.90;99.90;;;;;;5062024;28;20192;-68
2023/08/15 07:29:14;;;;;;;10.70;6.30;;;23.00;99.90;;;;;;5061671;28;20269;-72
2023/08/15 07:31:40;;;;;;;8.17;6.40;;;23.00;99.90;;;;;;5068867;28;20425;-72
2023/08/15 07:34:06;;;;;;;9.50;5.30;;;23.10;99.90;;;;;;5053055;28;20937;-72
2023/08/15 07:36:32;;;;;;;6.47;5.87;;;23.20;99.90;;;;;;5060601;28;20435;-71
2023/08/15 07:38:58;;;;;;;6.77;6.17;;;23.40;99.90;;;;;;5073020;28;20759;-70
2023/08/15 07:41:23;;;;;;;11.40;5.47;;;23.40;99.90;;;;;;5072880;28;20216;-67
2023/08/15 07:43:49;;;;;;;7.03;5.87;;;23.60;99.90;;;;;;5053555;28;20179;-73
2023/08/15 07:46:15;;;;;;;7.63;5.73;;;23.60;99.90;;;;;;5072869;28;20158;-70
2023/08/15 07:48:42;;;;;;;8.00;6.20;;;23.60;99.90;;;;;;5073733;28;20204;-72
2023/08/15 07:51:08;;;;;;;10.50;6.40;;;23.70;99.90;;;;;;5073174;28;20173;-72
2023/08/15 07:53:34;;;;;;;8.23;6.13;;;23.80;99.90;;;;;;5066568;28;20449;-67
2023/08/15 07:55:59;;;;;;;5.73;5.20;;;23.80;99.90;;;;;;5052808;28;20178;-67
2023/08/15 07:58:25;;;;;;;9.27;5.40;;;23.80;99.90;;;;;;5052761;28;20198;-67
2023/08/15 08:00:51;;;;;;;7.03;5.20;;;23.80;99.90;;;;;;5053689;28;20677;-67
2023/08/15 08:03:16;;;;;;;9.37;6.50;;;23.90;99.90;;;;;;5068885;28;20167;-68
2023/08/15 08:05:42;;;;;;;7.33;6.27;;;23.90;99.90;;;;;;5052233;28;20186;-72
2023/08/15 08:08:08;;;;;;;12.10;6.00;;;23.90;99.90;;;;;;5052875;28;20221;-67
2023/08/15 08:10:34;;;;;;;7.40;6.70;;;23.90;99.90;;;;;;5053960;28;20242;-70
2023/08/15 08:13:00;;;;;;;8.50;7.00;;;23.90;99.90;;;;;;5053394;28;20171;-67
2023/08/15 08:15:27;;;;;;;8.80;6.43;;;23.90;99.90;;;;;;5052567;28;20747;-73
2023/08/15 08:17:53;;;;;;;7.70;6.87;;;24.00;99.90;;;;;;5053425;28;20222;-67
2023/08/15 08:20:20;;;;;;;13.63;7.20;;;24.00;99.90;;;;;;5052240;28;20558;-69
2023/08/15 08:22:46;;;;;;;10.23;6.93;;;24.00;99.90;;;;;;5059291;28;20425;-67
2023/08/15 08:25:17;;;;;;;7.53;6.63;;;24.00;99.90;;;;;;5054076;28;20747;-67
2023/08/15 08:27:46;;;;;;;12.83;6.80;;;24.00;99.90;;;;;;5053743;28;20187;-68
2023/08/15 08:30:13;;;;;;;9.10;7.27;;;23.90;99.90;;;;;;5052519;28;20405;-67
2023/08/15 08:32:39;;;;;;;7.53;6.83;;;23.90;99.90;;;;;;5057821;28;20905;-67
2023/08/15 08:35:05;;;;;;;13.60;7.83;;;23.90;99.90;;;;;;5064438;28;20432;-69
2023/08/15 08:37:32;;;;;;;7.73;7.00;;;23.80;99.90;;;;;;5052871;28;20194;-72
2023/08/15 08:39:58;;;;;;;9.30;7.20;;;23.70;99.90;;;;;;5054514;28;20995;-72
2023/08/15 08:42:24;;;;;;;9.73;7.20;;;23.70;99.90;;;;;;5057889;28;20429;-71
2023/08/15 08:44:50;;;;;;;9.97;6.70;;;23.60;99.90;;;;;;5055216;28;20570;-72
2023/08/15 08:47:21;;;;;;;7.07;6.47;;;23.50;99.90;;;;;;5055533;28;20217;-67
2023/08/15 08:49:48;;;;;;;11.13;6.67;;;23.50;99.90;;;;;;5069908;28;20806;-67
2023/08/15 08:52:15;;;;;;;10.17;6.83;;;23.50;99.90;;;;;;5073027;28;20411;-68
2023/08/15 08:54:41;;;;;;;10.60;7.30;;;23.50;99.90;;;;;;5072867;28;20417;-69
2023/08/15 08:57:07;;;;;;;11.10;7.53;;;23.50;99.90;;;;;;5061265;28;20522;-67
2023/08/15 08:59:35;;;;;;;12.10;7.20;;;23.40;99.90;;;;;;5051866;28;20194;-69
2023/08/15 09:02:02;;;;;;;9.13;8.23;;;23.40;99.90;;;;;;5053017;28;20871;-67
2023/08/15 09:04:29;;;;;;;9.33;7.77;;;23.30;99.90;;;;;;5051693;28;20385;-71
2023/08/15 09:06:54;;;;;;;14.43;9.33;;;23.20;99.90;;;;;;5056865;28;20435;-72
2023/08/15 09:09:20;;;;;;;9.10;8.20;;;23.20;99.90;;;;;;5064458;28;20940;-66
2023/08/15 09:11:47;;;;;;;9.37;8.40;;;23.00;99.90;;;;;;5071901;28;20174;-67
2023/08/15 09:14:13;;;;;;;10.77;8.40;;;23.00;99.90;;;;;;5073391;28;20526;-68
2023/08/15 09:16:49;;;;;;;9.10;8.17;;;23.00;99.90;;;;;;5072776;28;20777;-68
2023/08/15 09:19:15;;;;;;;15.73;8.90;;;22.90;99.90;;;;;;5076655;28;20447;-67
2023/08/15 09:21:42;;;;;;;11.47;10.30;;;22.90;99.90;;;;;;5076623;28;21087;-68
2023/08/15 09:24:08;;;;;;;10.97;9.50;;;22.80;99.90;;;;;;5076134;28;20404;-72
2023/08/15 09:26:35;;;;;;;11.60;9.73;;;22.80;99.90;;;;;;5068058;28;20425;-72
2023/08/15 09:29:03;;;;;;;17.40;11.27;;;22.70;99.90;;;;;;5056382;28;20437;-67
2023/08/15 09:31:29;;;;;;;14.77;10.13;;;22.70;99.90;;;;;;5056425;28;20433;-67
2023/08/15 09:33:55;;;;;;;12.13;9.83;;;22.70;99.90;;;;;;5061522;28;20458;-72
2023/08/15 09:36:23;;;;;;;16.03;12.00;;;22.70;99.90;;;;;;5067894;28;20203;-67
2023/08/15 09:38:54;;;;;;;18.93;10.73;;;22.70;99.90;;;;;;5056129;28;20531;-72
2023/08/15 09:41:24;;;;;;;15.83;11.00;;;22.80;99.90;;;;;;5055654;28;20937;-67
2023/08/15 09:43:51;;;;;;;13.53;9.87;;;22.80;99.90;;;;;;5077296;28;20400;-66
2023/08/15 09:46:18;;;;;;;12.13;10.93;;;22.90;99.90;;;;;;5075307;28;20400;-71
2023/08/15 09:48:48;;;;;;;15.23;11.97;;;23.00;99.90;;;;;;5076025;28;20957;-73
2023/08/15 09:51:16;;;;;;;18.60;10.90;;;23.00;99.90;;;;;;5066604;28;20414;-71
2023/08/15 09:53:43;;;;;;;13.60;8.30;;;23.10;99.90;;;;;;5055910;28;20428;-67
2023/08/15 09:56:10;;;;;;;14.10;9.53;;;23.20;99.90;;;;;;5062782;28;20432;-70
2023/08/15 09:58:37;;;;;;;10.40;9.40;;;23.20;99.90;;;;;;5074595;28;20611;-66
2023/08/15 10:01:06;;;;;;;12.80;11.50;;;23.20;99.90;;;;;;5075553;28;20432;-71
2023/08/15 10:03:37;;;;;;;12.07;10.77;;;23.20;99.90;;;;;;5075498;28;20760;-66
2023/08/15 10:06:06;;;;;;;11.43;10.20;;;23.20;99.90;;;;;;5073623;28;20495;-68
2023/08/15 10:08:32;;;;;;;15.33;12.00;;;23.40;99.90;;;;;;5074868;28;20436;-66
2023/08/15 10:10:59;;;;;;;15.00;11.40;;;23.50;99.90;;;;;;5073893;28;20435;-68
2023/08/15 10:13:31;;;;;;;12.23;11.13;;;23.90;99.90;;;;;;5061335;28;20433;-71
2023/08/15 10:15:58;;;;;;;13.93;11.63;;;24.20;99.90;;;;;;5054901;28;20444;-67
2023/08/15 10:18:24;;;;;;;12.67;11.20;;;24.40;99.90;;;;;;5054842;28;20425;-71
2023/08/15 10:20:51;;;;;;;13.73;12.40;;;24.60;99.90;;;;;;5067806;28;20400;-72
2023/08/15 10:23:24;;;;;;;12.47;11.23;;;24.60;99.90;;;;;;5071642;28;20439;-72
2023/08/15 10:25:52;;;;;;;11.87;10.67;;;24.50;99.90;;;;;;5069179;28;20460;-73
2023/08/15 10:28:19;;;;;;;11.77;10.57;;;24.30;99.90;;;;;;5055263;28;21019;-67
2023/08/15 10:30:46;;;;;;;15.60;14.10;;;24.30;99.90;;;;;;5055009;28;20466;-71
2023/08/15 10:33:12;;;;;;;16.33;14.80;;;24.30;99.90;;;;;;5058459;28;20490;-72
2023/08/15 10:35:43;;;;;;;14.67;13.17;;;24.50;99.90;;;;;;5056640;28;22214;-67
2023/08/15 10:38:16;;;;;;;14.33;12.93;;;24.90;99.90;;;;;;5053836;28;20234;-71
2023/08/15 10:40:44;;;;;;;13.47;12.17;;;25.40;99.90;;;;;;5054621;28;20945;-67
2023/08/15 10:43:11;;;;;;;16.80;13.57;;;25.70;99.90;;;;;;5061450;28;20421;-67
2023/08/15 10:45:43;;;;;;;18.20;14.33;;;25.60;99.90;;;;;;5053761;28;20485;-72
2023/08/15 10:48:09;;;;;;;16.77;15.10;;;25.40;99.90;;;;;;5070418;28;20448;-71
2023/08/15 10:50:41;;;;;;;20.30;16.30;;;25.10;99.90;;;;;;5057731;28;20913;-73
2023/08/15 10:53:07;;;;;;;18.37;16.63;;;25.00;99.90;;;;;;5071743;28;20459;-68
2023/08/15 10:55:35;;;;;;;21.07;17.63;;;25.10;99.90;;;;;;5056720;28;20771;-72
2023/08/15 10:58:09;;;;;;;22.83;20.30;;;25.20;99.90;;;;;;5065965;28;20768;-73
2023/08/15 11:00:36;;;;;;;24.10;18.37;;;25.00;99.90;;;;;;5053965;28;20501;-68
2023/08/15 11:03:02;;;;;;;17.90;16.20;;;25.20;99.90;;;;;;5073800;28;20425;-70
2023/08/15 11:05:29;;;;;;;17.90;15.93;;;25.90;99.90;;;;;;5072941;28;20428;-67
2023/08/15 11:08:09;;;;;;;16.70;15.00;;;26.50;99.90;;;;;;5065994;28;20512;-69
2023/08/15 11:10:35;;;;;;;15.10;13.53;;;26.70;99.90;;;;;;5056391;28;20444;-67
2023/08/15 11:13:00;;;;;;;16.53;14.83;;;26.80;99.90;;;;;;5069985;28;20425;-72
2023/08/15 11:15:26;;;;;;;16.07;14.40;;;26.70;99.90;;;;;;5055856;28;20175;-72
2023/08/15 11:17:54;;;;;;;16.57;13.63;;;26.60;98.10;;;;;;5067379;28;20552;-72
2023/08/15 11:20:20;;;;;;;14.40;13.10;;;26.40;84.80;;;;;;5060173;28;20206;-72
2023/08/15 11:22:55;;;;;;;12.97;11.93;;;26.10;82.90;;;;;;5063546;28;20475;-68
2023/08/15 11:25:21;;;;;;;14.20;12.90;;;25.90;86.40;;;;;;5056955;28;20429;-67
2023/08/15 11:27:50;;;;;;;14.70;13.60;;;25.80;95.20;;;;;;5054380;28;20425;-68
2023/08/15 11:30:16;;;;;;;14.57;13.27;;;25.70;97.70;;;;;;5073189;28;20626;-71
2023/08/15 11:32:42;;;;;;;16.27;14.67;;;25.40;96.90;;;;;;5068320;28;20436;-71
2023/08/15 11:35:09;;;;;;;15.43;13.90;;;25.20;94.20;;;;;;5053282;28;20398;-73
2023/08/15 11:37:36;;;;;;;14.33;13.03;;;25.00;94.60;;;;;;5070846;28;20540;-68
2023/08/15 11:40:04;;;;;;;16.57;13.90;;;24.80;97.50;;;;;;5071965;28;20501;-68
2023/08/15 11:42:30;;;;;;;14.70;13.30;;;24.70;97.40;;;;;;5073965;28;20424;-72
2023/08/15 11:45:20;;;;;;;13.77;12.37;;;24.60;97.40;;;;;;5072268;28;20420;-72
2023/08/15 11:47:56;;;;;;;13.57;12.27;;;24.60;97.50;;;;;;5073767;28;20947;-67
2023/08/15 11:50:28;;;;;;;13.90;12.57;;;24.60;97.40;;;;;;5072465;28;20412;-67
2023/08/15 11:52:54;;;;;;;21.93;15.00;;;24.60;99.90;;;;;;5065768;28;20418;-65
2023/08/15 11:55:21;;;;;;;28.03;17.00;;;24.50;99.90;;;;;;5066195;28;20440;-67
2023/08/15 11:57:47;;;;;;;14.97;13.47;;;24.20;99.90;;;;;;5072696;28;20802;-68
2023/08/15 12:00:16;;;;;;;17.20;15.47;;;24.00;99.90;;;;;;5073450;28;20593;-67
2023/08/15 12:02:46;;;;;;;19.80;15.50;;;23.70;99.90;;;;;;5061325;28;20417;-68
2023/08/15 12:05:17;;;;;;;15.60;14.10;;;23.40;99.90;;;;;;5052030;28;20422;-67
2023/08/15 12:07:43;;;;;;;15.50;14.00;;;23.20;99.90;;;;;;5053268;28;20987;-69
2023/08/15 12:10:11;;;;;;;19.17;17.47;;;23.00;99.90;;;;;;5051564;28;20904;-71
2023/08/15 12:12:42;;;;;;;18.87;16.83;;;22.90;99.90;;;;;;5053518;28;20455;-67
2023/08/15 12:15:10;;;;;;;17.83;15.43;;;22.80;99.90;;;;;;5052078;28;20416;-72
2023/08/15 12:17:37;;;;;;;21.07;17.30;;;22.70;99.90;;;;;;5053586;28;20444;-71
2023/08/15 12:20:06;;;;;;;19.57;17.77;;;22.80;99.90;;;;;;5052933;28;21015;-67
2023/08/15 12:22:32;;;;;;;19.20;15.80;;;22.80;99.90;;;;;;5067921;28;20929;-70
2023/08/15 12:24:58;;;;;;;16.63;14.80;;;22.90;99.90;;;;;;5062927;28;20461;-71
2023/08/15 12:27:25;;;;;;;22.60;16.30;;;22.80;99.90;;;;;;5051929;28;20417;-67
2023/08/15 12:29:50;;;;;;;15.90;13.33;;;22.80;99.90;;;;;;5051894;28;20413;-66
2023/08/15 12:32:16;;;;;;;15.93;11.80;;;22.80;99.90;;;;;;5057081;28;20805;-67
2023/08/15 12:34:42;;;;;;;15.00;11.97;;;23.00;99.90;;;;;;5061608;28;20268;-72
2023/08/15 12:37:08;;;;;;;12.53;9.10;;;23.20;99.90;;;;;;5056507;28;20198;-66
2023/08/15 12:39:34;;;;;;;11.10;8.83;;;23.60;99.90;;;;;;5061911;28;20269;-70